createdAt,value
2023-09-25T00:02:18.457Z,13.81
2023-09-25T00:07:23.082Z,13.80
2023-09-25T00:12:26.092Z,13.76
2023-09-25T00:17:29.103Z,13.68
2023-09-25T00:22:32.361Z,13.62
2023-09-25T00:27:36.018Z,13.55
2023-09-25T00:32:39.416Z,13.48
2023-09-25T00:37:43.627Z,13.48
2023-09-25T00:42:53.039Z,13.45
2023-09-25T00:47:56.323Z,13.42
2023-09-25T00:53:07.879Z,13.36
2023-09-25T00:58:12.853Z,13.27
2023-09-25T01:03:16.220Z,13.19
2023-09-25T01:08:19.305Z,13.16
2023-09-25T01:13:22.361Z,13.23
2023-09-25T01:18:25.216Z,13.12
2023-09-25T01:23:28.238Z,13.03
2023-09-25T01:28:31.298Z,13.05
2023-09-25T01:33:35.054Z,13.00
2023-09-25T01:38:38.080Z,12.95
2023-09-25T01:43:41.047Z,12.93
2023-09-25T01:48:47.189Z,12.81
2023-09-25T01:53:52.040Z,12.73
2023-09-25T01:58:55.627Z,12.72
2023-09-25T02:03:58.983Z,12.66
2023-09-25T02:09:02.330Z,12.66
2023-09-25T02:14:06.436Z,12.64
2023-09-25T02:19:09.502Z,12.61
2023-09-25T02:24:12.731Z,12.55
2023-09-25T02:29:15.966Z,12.47
2023-09-25T02:34:18.907Z,12.44
2023-09-25T02:39:21.754Z,12.43
2023-09-25T02:44:24.852Z,12.42
2023-09-25T02:49:27.735Z,12.36
2023-09-25T02:54:30.634Z,12.38
2023-09-25T02:59:33.677Z,12.39
2023-09-25T03:04:36.996Z,12.44
2023-09-25T03:09:40.257Z,12.46
2023-09-25T03:14:44.152Z,12.53
2023-09-25T03:19:47.101Z,12.56
2023-09-25T03:24:50.506Z,12.64
2023-09-25T03:29:53.491Z,12.71
2023-09-25T03:34:56.536Z,12.70
2023-09-25T03:40:00.945Z,12.84
2023-09-25T03:45:04.951Z,12.92
2023-09-25T03:50:09.917Z,13.03
2023-09-25T03:55:13.067Z,13.00
2023-09-25T04:00:16.305Z,13.02
2023-09-25T04:05:19.525Z,13.24
2023-09-25T04:10:23.298Z,13.49
2023-09-25T04:15:27.005Z,13.74
2023-09-25T04:20:30.101Z,13.93
2023-09-25T04:25:33.253Z,14.14
2023-09-25T04:30:36.393Z,14.35
2023-09-25T04:35:39.471Z,14.53
2023-09-25T04:40:44.160Z,14.75
2023-09-25T04:45:47.723Z,14.85
2023-09-25T04:50:50.858Z,15.14
2023-09-25T04:55:54.100Z,15.35
2023-09-25T05:00:57.822Z,15.58
2023-09-25T05:06:01.172Z,15.80
2023-09-25T05:11:06.175Z,15.86
2023-09-25T05:16:11.046Z,16.20
2023-09-25T05:21:13.857Z,16.47
2023-09-25T05:26:16.674Z,16.76
2023-09-25T05:31:19.485Z,17.04
2023-09-25T05:36:22.415Z,17.39
2023-09-25T05:41:25.325Z,17.67
2023-09-25T05:46:28.537Z,17.92
2023-09-25T05:51:31.509Z,18.26
2023-09-25T05:56:34.494Z,18.48
2023-09-25T06:01:37.668Z,18.79
2023-09-25T06:06:40.892Z,18.99
2023-09-25T06:11:45.218Z,19.23
2023-09-25T06:16:49.222Z,19.42
2023-09-25T06:21:53.172Z,19.53
2023-09-25T06:26:56.108Z,19.80
2023-09-25T06:32:01.605Z,19.95
2023-09-25T06:37:06.809Z,20.09
2023-09-25T06:42:09.812Z,20.03
2023-09-25T06:47:12.739Z,20.01
2023-09-25T06:52:15.604Z,19.99
2023-09-25T06:57:18.568Z,20.19
2023-09-25T07:02:22.157Z,20.34
2023-09-25T07:07:25.807Z,20.51
2023-09-25T07:12:29.520Z,20.73
2023-09-25T07:17:32.614Z,20.86
2023-09-25T07:22:35.837Z,21.17
2023-09-25T07:27:38.872Z,21.33
2023-09-25T07:32:43.930Z,21.72
2023-09-25T07:37:49.195Z,22.04
2023-09-25T07:42:53.946Z,22.05
2023-09-25T07:47:57.394Z,22.51
2023-09-25T07:53:01.260Z,22.34
2023-09-25T07:58:05.795Z,22.73
2023-09-25T08:03:08.917Z,23.13
2023-09-25T08:08:13.244Z,23.22
2023-09-25T08:13:17.725Z,23.64
2023-09-25T08:18:21.472Z,23.81
2023-09-25T08:23:24.619Z,24.02
2023-09-25T08:28:27.604Z,24.22
2023-09-25T08:33:30.700Z,23.81
2023-09-25T08:38:33.612Z,23.99
2023-09-25T08:43:37.923Z,23.78
2023-09-25T08:48:41.679Z,23.70
2023-09-25T08:53:44.659Z,23.59
2023-09-25T08:58:51.143Z,24.13
2023-09-25T09:03:55.031Z,24.17
2023-09-25T09:08:59.098Z,23.81
2023-09-25T09:14:02.260Z,24.02
2023-09-25T09:19:09.029Z,23.84
2023-09-25T09:24:22.802Z,24.16
2023-09-25T09:29:25.902Z,24.34
2023-09-25T09:34:29.003Z,24.81
2023-09-25T09:39:38.394Z,24.54
2023-09-25T09:44:41.438Z,25.05
2023-09-25T09:49:46.063Z,24.65
2023-09-25T09:54:52.333Z,25.10
2023-09-25T09:59:56.573Z,25.32
2023-09-25T10:05:00.622Z,24.98
2023-09-25T10:10:08.298Z,24.97
2023-09-25T10:15:13.430Z,25.22
2023-09-25T10:20:42.129Z,25.13
2023-09-25T10:25:59.018Z,24.96
2023-09-25T10:31:03.707Z,25.02
2023-09-25T10:36:07.041Z,25.22
2023-09-25T10:41:10.403Z,25.52
2023-09-25T10:46:13.583Z,25.32
2023-09-25T10:51:18.033Z,25.29
2023-09-25T10:56:21.300Z,24.98
2023-09-25T11:01:33.734Z,24.98
2023-09-25T11:06:37.491Z,25.28
2023-09-25T11:11:42.228Z,25.09
2023-09-25T11:16:46.192Z,25.22
2023-09-25T11:21:51.876Z,25.15
2023-09-25T11:26:54.768Z,25.11
2023-09-25T11:32:02.450Z,25.22
2023-09-25T11:37:06.212Z,25.03
2023-09-25T11:42:09.225Z,25.23
2023-09-25T11:47:12.930Z,25.46
2023-09-25T11:52:15.985Z,25.34
2023-09-25T11:57:18.928Z,25.63
2023-09-25T12:02:23.539Z,25.85
2023-09-25T12:07:30.202Z,25.67
2023-09-25T12:12:38.216Z,25.23
2023-09-25T12:17:42.077Z,25.28
2023-09-25T12:22:47.177Z,25.32
2023-09-25T12:27:50.632Z,25.12
2023-09-25T12:32:53.785Z,25.07
2023-09-25T12:37:57.545Z,25.04
2023-09-25T12:43:01.032Z,24.95
2023-09-25T12:48:04.457Z,24.71
2023-09-25T12:53:07.563Z,24.75
2023-09-25T12:58:10.913Z,24.71
2023-09-25T13:03:14.753Z,24.38
2023-09-25T13:08:17.761Z,24.16
2023-09-25T13:13:20.991Z,24.07
2023-09-25T13:18:24.107Z,24.03
2023-09-25T13:23:27.017Z,24.00
2023-09-25T13:28:30.115Z,23.89
2023-09-25T13:33:33.384Z,23.77
2023-09-25T13:38:36.365Z,23.56
2023-09-25T13:43:42.953Z,23.46
2023-09-25T13:48:46.343Z,23.32
2023-09-25T13:53:49.879Z,23.23
2023-09-25T13:58:53.721Z,23.05
2023-09-25T14:03:56.865Z,22.91
2023-09-25T14:09:00.301Z,22.75
2023-09-25T14:14:03.909Z,22.63
2023-09-25T14:19:07.542Z,22.49
2023-09-25T14:24:10.704Z,22.37
2023-09-25T14:29:13.812Z,22.25
2023-09-25T14:34:16.826Z,22.16
2023-09-25T14:39:19.979Z,22.03
2023-09-25T14:44:23.028Z,21.96
2023-09-25T14:49:26.130Z,21.86
2023-09-25T14:54:29.295Z,21.83
2023-09-25T14:59:32.750Z,21.75
2023-09-25T15:04:36.235Z,21.69
2023-09-25T15:09:39.468Z,21.67
2023-09-25T15:14:42.572Z,21.64
2023-09-25T15:19:45.867Z,21.60
2023-09-25T15:24:49.247Z,21.59
2023-09-25T15:29:53.960Z,21.56
2023-09-25T15:34:57.177Z,21.53
2023-09-25T15:40:00.799Z,21.49
2023-09-25T15:45:04.262Z,21.44
2023-09-25T15:50:09.021Z,21.38
2023-09-25T15:55:12.638Z,21.33
2023-09-25T16:00:15.993Z,21.29
2023-09-25T16:05:19.055Z,21.21
2023-09-25T16:10:22.109Z,21.15
2023-09-25T16:15:25.334Z,20.57
2023-09-25T16:20:28.858Z,20.21
2023-09-25T16:25:32.484Z,20.07
2023-09-25T16:30:37.815Z,19.85
2023-09-25T16:35:40.816Z,19.74
2023-09-25T16:40:44.622Z,19.74
2023-09-25T16:45:47.797Z,19.56
2023-09-25T16:50:50.896Z,19.53
2023-09-25T16:55:53.976Z,19.50
2023-09-25T17:00:56.949Z,19.46
2023-09-25T17:06:00.004Z,19.45
2023-09-25T17:11:03.445Z,19.36
2023-09-25T17:16:10.890Z,19.34
2023-09-25T17:21:14.038Z,19.31
2023-09-25T17:26:20.205Z,19.22
2023-09-25T17:31:24.243Z,19.12
2023-09-25T17:36:27.381Z,19.07
2023-09-25T17:41:30.577Z,19.07
2023-09-25T17:46:33.924Z,19.01
2023-09-25T17:51:36.947Z,18.94
2023-09-25T17:56:40.828Z,18.92
2023-09-25T18:01:43.817Z,18.92
2023-09-25T18:06:46.872Z,18.89
2023-09-25T18:11:50.471Z,18.84
2023-09-25T18:16:53.777Z,18.81
2023-09-25T18:21:58.523Z,18.84
2023-09-25T18:27:02.010Z,18.85
2023-09-25T18:32:05.965Z,18.87
2023-09-25T18:37:09.078Z,18.83
2023-09-25T18:42:12.222Z,18.78
2023-09-25T18:47:15.231Z,18.67
2023-09-25T18:52:18.282Z,18.66
2023-09-25T18:57:21.208Z,18.64
2023-09-25T19:02:24.184Z,18.64
2023-09-25T19:07:27.242Z,18.59
2023-09-25T19:12:30.268Z,18.52
2023-09-25T19:17:33.475Z,18.52
2023-09-25T19:22:37.052Z,18.57
2023-09-25T19:27:40.476Z,18.46
2023-09-25T19:32:43.863Z,18.37
2023-09-25T19:37:47.225Z,18.37
2023-09-25T19:42:50.268Z,18.27
2023-09-25T19:47:53.430Z,18.32
2023-09-25T19:52:56.541Z,18.36
2023-09-25T19:58:01.499Z,18.30
2023-09-25T20:03:06.712Z,18.31
2023-09-25T20:08:10.018Z,18.33
2023-09-25T20:13:13.133Z,18.25
2023-09-25T20:18:17.089Z,18.21
2023-09-25T20:23:20.745Z,18.18
2023-09-25T20:28:23.952Z,18.18
2023-09-25T20:33:26.820Z,18.15
2023-09-25T20:38:29.875Z,18.09
2023-09-25T20:43:33.481Z,18.08
2023-09-25T20:48:36.558Z,18.05
2023-09-25T20:53:39.768Z,18.00
2023-09-25T20:58:42.610Z,17.99
2023-09-25T21:03:45.654Z,17.96
2023-09-25T21:08:48.627Z,17.93
2023-09-25T21:13:52.943Z,17.87
2023-09-25T21:18:58.531Z,17.89
2023-09-25T21:24:01.745Z,17.79
2023-09-25T21:29:04.868Z,17.74
2023-09-25T21:34:10.208Z,17.59
2023-09-25T21:39:13.405Z,17.59
2023-09-25T21:44:16.425Z,17.57
2023-09-25T21:49:19.534Z,17.49
2023-09-25T21:54:22.697Z,17.41
2023-09-25T21:59:25.963Z,17.36
2023-09-25T22:04:29.072Z,17.15
2023-09-25T22:09:32.414Z,17.03
2023-09-25T22:14:36.547Z,16.89
2023-09-25T22:19:40.739Z,16.89
2023-09-25T22:24:43.827Z,17.05
2023-09-25T22:29:46.799Z,17.19
2023-09-25T22:34:49.852Z,17.35
2023-09-25T22:39:52.928Z,17.35
2023-09-25T22:44:55.946Z,17.26
2023-09-25T22:49:58.906Z,16.99
2023-09-25T22:55:01.954Z,16.75
2023-09-25T23:00:14.794Z,16.92
2023-09-25T23:05:17.763Z,16.86
2023-09-25T23:10:20.984Z,16.76
2023-09-25T23:15:24.125Z,16.59
2023-09-25T23:20:28.501Z,16.58
2023-09-25T23:25:31.610Z,16.45
2023-09-25T23:30:34.763Z,16.52
2023-09-25T23:35:37.801Z,16.56
2023-09-25T23:40:40.808Z,16.42
2023-09-25T23:45:44.024Z,16.40
2023-09-25T23:50:46.960Z,16.30
2023-09-25T23:55:49.855Z,16.30
